CYJT

Stephenville Airport

Stephenville, Canada
METAR CYJT 242100Z 31010G17KT 15SM FEW026 BKN029 07/M01 A3043 RMK CU2SC4 SLP306
Observed Flight Rules
Sep-24 @ 21:00 UTC (24 minutes ago) Marginal Visual Flight Rules
Wind Visibility Clouds
310° at 10 knots
 Gusting to 17 knots
15 miles
  • Few at 2,600' AGL
  • Broken at 2,900' AGL
Temperatures Readings
Current 7°C / 45°F
Dewpoint -1°C / 30°F
Humidity 57%
Altimeter 30.43" Hg
Pressure 1030.6 hPa
Elevation 26
METAR CYJT 242100Z 31010G17KT 15SM FEW026 BKN029 07/M01 A3043 RMK CU2SC4 SLP306
Observed Flight Rules
Sep-24 @ 21:00 UTC
(24 minutes ago)
MVFR
Wind Visibility
310° at 10 knots
 Gusting to 17 knots
15 miles
Clouds
  • Few at 2,600' AGL
  • Broken at 2,900' AGL
Temperature Dewpoint
7°C / 45°F -1°C / 30°F
Humidity Altimeter Pressure
57% 30.43" Hg 1030.6 hPa